sensor_id;sensor_type;location;lat;lon;timestamp;P1;durP1;ratioP1;P2;durP2;ratioP2
25497;SDS011;13406;53.380;7.226;2022-11-15T00:00:50;23.17;;;18.87;;
25497;SDS011;13406;53.380;7.226;2022-11-15T00:03:16;21.30;;;18.80;;
25497;SDS011;13406;53.380;7.226;2022-11-15T00:05:43;24.93;;;19.73;;
25497;SDS011;13406;53.380;7.226;2022-11-15T00:08:09;21.43;;;19.03;;
25497;SDS011;13406;53.380;7.226;2022-11-15T00:10:35;21.23;;;18.93;;
25497;SDS011;13406;53.380;7.226;2022-11-15T00:13:08;25.00;;;19.57;;
25497;SDS011;13406;53.380;7.226;2022-11-15T00:15:38;26.03;;;18.80;;
25497;SDS011;13406;53.380;7.226;2022-11-15T00:18:05;25.23;;;19.90;;
25497;SDS011;13406;53.380;7.226;2022-11-15T00:20:33;21.53;;;18.37;;
25497;SDS011;13406;53.380;7.226;2022-11-15T00:22:58;22.63;;;19.10;;
25497;SDS011;13406;53.380;7.226;2022-11-15T00:25:24;23.30;;;19.10;;
25497;SDS011;13406;53.380;7.226;2022-11-15T00:27:49;22.33;;;18.60;;
25497;SDS011;13406;53.380;7.226;2022-11-15T00:30:16;21.70;;;19.00;;
25497;SDS011;13406;53.380;7.226;2022-11-15T00:32:42;24.73;;;19.70;;
25497;SDS011;13406;53.380;7.226;2022-11-15T00:35:08;22.00;;;18.70;;
25497;SDS011;13406;53.380;7.226;2022-11-15T00:37:33;23.97;;;20.07;;
25497;SDS011;13406;53.380;7.226;2022-11-15T00:39:58;25.70;;;18.40;;
25497;SDS011;13406;53.380;7.226;2022-11-15T00:42:24;23.43;;;19.03;;
25497;SDS011;13406;53.380;7.226;2022-11-15T00:44:49;25.60;;;18.10;;
25497;SDS011;13406;53.380;7.226;2022-11-15T00:47:15;22.90;;;18.27;;
25497;SDS011;13406;53.380;7.226;2022-11-15T00:49:40;23.10;;;18.80;;
25497;SDS011;13406;53.380;7.226;2022-11-15T00:52:06;21.30;;;16.97;;
25497;SDS011;13406;53.380;7.226;2022-11-15T00:54:32;25.27;;;18.50;;
25497;SDS011;13406;53.380;7.226;2022-11-15T00:56:57;20.63;;;17.77;;
25497;SDS011;13406;53.380;7.226;2022-11-15T00:59:23;21.17;;;17.70;;
25497;SDS011;13406;53.380;7.226;2022-11-15T01:01:48;21.15;;;17.80;;
25497;SDS011;13406;53.380;7.226;2022-11-15T01:04:13;22.40;;;17.10;;
25497;SDS011;13406;53.380;7.226;2022-11-15T01:06:39;21.90;;;17.80;;
25497;SDS011;13406;53.380;7.226;2022-11-15T01:09:04;24.05;;;19.20;;
25497;SDS011;13406;53.380;7.226;2022-11-15T01:11:30;24.27;;;18.67;;
25497;SDS011;13406;53.380;7.226;2022-11-15T01:13:55;19.13;;;16.73;;
25497;SDS011;13406;53.380;7.226;2022-11-15T01:16:21;20.47;;;17.33;;
25497;SDS011;13406;53.380;7.226;2022-11-15T01:18:46;20.17;;;17.50;;
25497;SDS011;13406;53.380;7.226;2022-11-15T01:21:15;21.20;;;17.80;;
25497;SDS011;13406;53.380;7.226;2022-11-15T01:23:43;20.00;;;17.67;;
25497;SDS011;13406;53.380;7.226;2022-11-15T01:26:10;20.50;;;17.77;;
25497;SDS011;13406;53.380;7.226;2022-11-15T01:28:39;20.23;;;16.47;;
25497;SDS011;13406;53.380;7.226;2022-11-15T01:31:13;22.10;;;17.17;;
25497;SDS011;13406;53.380;7.226;2022-11-15T01:33:40;20.73;;;16.53;;
25497;SDS011;13406;53.380;7.226;2022-11-15T01:36:27;18.37;;;16.37;;
25497;SDS011;13406;53.380;7.226;2022-11-15T01:38:53;17.70;;;15.77;;
25497;SDS011;13406;53.380;7.226;2022-11-15T01:41:21;17.87;;;15.80;;
25497;SDS011;13406;53.380;7.226;2022-11-15T01:46:53;19.30;;;16.37;;
25497;SDS011;13406;53.380;7.226;2022-11-15T01:49:20;20.60;;;16.23;;
25497;SDS011;13406;53.380;7.226;2022-11-15T01:51:47;20.27;;;17.10;;
25497;SDS011;13406;53.380;7.226;2022-11-15T01:54:14;19.47;;;15.37;;
25497;SDS011;13406;53.380;7.226;2022-11-15T01:56:46;20.33;;;15.70;;
25497;SDS011;13406;53.380;7.226;2022-11-15T01:59:18;18.43;;;15.43;;
25497;SDS011;13406;53.380;7.226;2022-11-15T02:01:44;17.80;;;15.33;;
25497;SDS011;13406;53.380;7.226;2022-11-15T02:04:12;19.60;;;16.00;;
25497;SDS011;13406;53.380;7.226;2022-11-15T02:06:41;17.33;;;15.13;;
25497;SDS011;13406;53.380;7.226;2022-11-15T02:09:09;18.87;;;14.53;;
25497;SDS011;13406;53.380;7.226;2022-11-15T02:11:34;18.13;;;16.10;;
25497;SDS011;13406;53.380;7.226;2022-11-15T02:14:00;18.23;;;15.37;;
25497;SDS011;13406;53.380;7.226;2022-11-15T02:16:41;18.07;;;15.77;;
25497;SDS011;13406;53.380;7.226;2022-11-15T02:21:44;18.17;;;15.50;;
25497;SDS011;13406;53.380;7.226;2022-11-15T02:30:14;17.53;;;15.63;;
25497;SDS011;13406;53.380;7.226;2022-11-15T02:33:00;18.47;;;15.97;;
25497;SDS011;13406;53.380;7.226;2022-11-15T02:42:57;18.27;;;15.33;;
25497;SDS011;13406;53.380;7.226;2022-11-15T02:45:51;20.20;;;16.37;;
25497;SDS011;13406;53.380;7.226;2022-11-15T02:48:23;19.03;;;16.87;;
25497;SDS011;13406;53.380;7.226;2022-11-15T02:50:50;18.33;;;16.33;;
25497;SDS011;13406;53.380;7.226;2022-11-15T02:53:17;21.60;;;17.03;;
25497;SDS011;13406;53.380;7.226;2022-11-15T02:55:46;19.63;;;17.13;;
25497;SDS011;13406;53.380;7.226;2022-11-15T03:01:00;17.17;;;14.83;;
25497;SDS011;13406;53.380;7.226;2022-11-15T03:06:16;19.30;;;16.27;;
25497;SDS011;13406;53.380;7.226;2022-11-15T03:11:28;20.93;;;15.73;;
25497;SDS011;13406;53.380;7.226;2022-11-15T03:13:58;21.17;;;16.77;;
25497;SDS011;13406;53.380;7.226;2022-11-15T03:16:36;20.33;;;15.63;;
25497;SDS011;13406;53.380;7.226;2022-11-15T03:21:49;21.50;;;17.03;;
25497;SDS011;13406;53.380;7.226;2022-11-15T03:24:16;19.53;;;17.43;;
25497;SDS011;13406;53.380;7.226;2022-11-15T03:26:45;25.47;;;17.73;;
25497;SDS011;13406;53.380;7.226;2022-11-15T03:29:16;18.70;;;16.30;;
25497;SDS011;13406;53.380;7.226;2022-11-15T03:31:49;20.83;;;15.60;;
25497;SDS011;13406;53.380;7.226;2022-11-15T03:34:26;22.10;;;17.57;;
25497;SDS011;13406;53.380;7.226;2022-11-15T03:36:54;19.07;;;15.90;;
25497;SDS011;13406;53.380;7.226;2022-11-15T03:39:20;24.73;;;17.07;;
25497;SDS011;13406;53.380;7.226;2022-11-15T03:41:52;20.07;;;16.57;;
25497;SDS011;13406;53.380;7.226;2022-11-15T03:44:42;19.07;;;16.10;;
25497;SDS011;13406;53.380;7.226;2022-11-15T03:49:59;19.93;;;16.47;;
25497;SDS011;13406;53.380;7.226;2022-11-15T03:52:30;23.93;;;16.67;;
25497;SDS011;13406;53.380;7.226;2022-11-15T03:54:58;19.37;;;15.97;;
25497;SDS011;13406;53.380;7.226;2022-11-15T03:57:27;19.70;;;17.40;;
25497;SDS011;13406;53.380;7.226;2022-11-15T03:59:53;20.13;;;17.10;;
25497;SDS011;13406;53.380;7.226;2022-11-15T04:02:19;19.50;;;16.70;;
25497;SDS011;13406;53.380;7.226;2022-11-15T04:04:44;20.67;;;15.97;;
25497;SDS011;13406;53.380;7.226;2022-11-15T04:07:10;21.53;;;17.00;;
25497;SDS011;13406;53.380;7.226;2022-11-15T04:09:35;24.07;;;17.90;;
25497;SDS011;13406;53.380;7.226;2022-11-15T04:12:24;22.97;;;16.50;;
25497;SDS011;13406;53.380;7.226;2022-11-15T04:14:59;27.80;;;19.07;;
25497;SDS011;13406;53.380;7.226;2022-11-15T04:17:32;27.53;;;18.67;;
25497;SDS011;13406;53.380;7.226;2022-11-15T04:19:59;23.13;;;18.50;;
25497;SDS011;13406;53.380;7.226;2022-11-15T04:22:43;26.63;;;16.37;;
25497;SDS011;13406;53.380;7.226;2022-11-15T04:25:28;22.80;;;17.60;;
25497;SDS011;13406;53.380;7.226;2022-11-15T04:27:53;25.93;;;18.57;;
25497;SDS011;13406;53.380;7.226;2022-11-15T04:30:19;26.50;;;18.40;;
25497;SDS011;13406;53.380;7.226;2022-11-15T04:32:44;22.70;;;17.80;;
25497;SDS011;13406;53.380;7.226;2022-11-15T04:35:10;28.03;;;18.10;;
25497;SDS011;13406;53.380;7.226;2022-11-15T04:37:35;23.77;;;17.37;;
25497;SDS011;13406;53.380;7.226;2022-11-15T04:40:00;29.33;;;19.07;;
25497;SDS011;13406;53.380;7.226;2022-11-15T04:42:26;28.40;;;20.43;;
25497;SDS011;13406;53.380;7.226;2022-11-15T04:44:51;26.10;;;18.80;;
25497;SDS011;13406;53.380;7.226;2022-11-15T04:47:17;24.90;;;17.73;;
25497;SDS011;13406;53.380;7.226;2022-11-15T04:49:42;25.60;;;19.23;;
25497;SDS011;13406;53.380;7.226;2022-11-15T04:52:09;21.23;;;17.63;;
25497;SDS011;13406;53.380;7.226;2022-11-15T04:54:34;30.00;;;18.07;;
25497;SDS011;13406;53.380;7.226;2022-11-15T04:57:00;26.60;;;19.23;;
25497;SDS011;13406;53.380;7.226;2022-11-15T04:59:25;29.20;;;19.80;;
25497;SDS011;13406;53.380;7.226;2022-11-15T05:01:51;25.50;;;18.70;;
25497;SDS011;13406;53.380;7.226;2022-11-15T05:04:16;26.50;;;19.50;;
25497;SDS011;13406;53.380;7.226;2022-11-15T05:06:45;23.53;;;18.77;;
25497;SDS011;13406;53.380;7.226;2022-11-15T05:09:11;29.70;;;20.20;;
25497;SDS011;13406;53.380;7.226;2022-11-15T05:11:38;28.10;;;20.47;;
25497;SDS011;13406;53.380;7.226;2022-11-15T05:14:04;27.33;;;19.70;;
25497;SDS011;13406;53.380;7.226;2022-11-15T05:16:30;26.70;;;19.03;;
25497;SDS011;13406;53.380;7.226;2022-11-15T05:18:55;29.93;;;19.60;;
25497;SDS011;13406;53.380;7.226;2022-11-15T05:21:21;28.87;;;21.10;;
25497;SDS011;13406;53.380;7.226;2022-11-15T05:23:46;31.77;;;20.40;;
25497;SDS011;13406;53.380;7.226;2022-11-15T05:26:12;27.00;;;20.07;;
25497;SDS011;13406;53.380;7.226;2022-11-15T05:28:39;27.67;;;21.23;;
25497;SDS011;13406;53.380;7.226;2022-11-15T05:33:31;27.77;;;19.67;;
25497;SDS011;13406;53.380;7.226;2022-11-15T05:36:07;27.63;;;19.60;;
25497;SDS011;13406;53.380;7.226;2022-11-15T05:38:38;27.10;;;18.60;;
25497;SDS011;13406;53.380;7.226;2022-11-15T05:41:04;31.67;;;21.50;;
25497;SDS011;13406;53.380;7.226;2022-11-15T05:43:30;34.40;;;21.53;;
25497;SDS011;13406;53.380;7.226;2022-11-15T05:46:00;30.73;;;20.80;;
25497;SDS011;13406;53.380;7.226;2022-11-15T05:48:29;26.13;;;19.73;;
25497;SDS011;13406;53.380;7.226;2022-11-15T05:50:54;34.77;;;21.80;;
25497;SDS011;13406;53.380;7.226;2022-11-15T05:53:21;29.20;;;21.90;;
25497;SDS011;13406;53.380;7.226;2022-11-15T05:55:49;33.60;;;20.43;;
25497;SDS011;13406;53.380;7.226;2022-11-15T05:58:15;28.40;;;20.50;;
25497;SDS011;13406;53.380;7.226;2022-11-15T06:00:41;30.83;;;19.47;;
25497;SDS011;13406;53.380;7.226;2022-11-15T06:03:08;32.70;;;20.70;;
25497;SDS011;13406;53.380;7.226;2022-11-15T06:05:34;30.43;;;19.83;;
25497;SDS011;13406;53.380;7.226;2022-11-15T06:07:59;29.63;;;20.80;;
25497;SDS011;13406;53.380;7.226;2022-11-15T06:10:25;32.00;;;22.50;;
25497;SDS011;13406;53.380;7.226;2022-11-15T06:12:57;38.87;;;23.10;;
25497;SDS011;13406;53.380;7.226;2022-11-15T06:15:23;38.00;;;21.97;;
25497;SDS011;13406;53.380;7.226;2022-11-15T06:17:48;37.73;;;23.03;;
25497;SDS011;13406;53.380;7.226;2022-11-15T06:20:14;39.67;;;23.20;;
25497;SDS011;13406;53.380;7.226;2022-11-15T06:22:39;35.70;;;22.27;;
25497;SDS011;13406;53.380;7.226;2022-11-15T06:25:05;34.50;;;23.20;;
25497;SDS011;13406;53.380;7.226;2022-11-15T06:27:31;39.70;;;23.20;;
25497;SDS011;13406;53.380;7.226;2022-11-15T06:29:56;40.33;;;22.83;;
25497;SDS011;13406;53.380;7.226;2022-11-15T06:32:21;37.40;;;24.23;;
25497;SDS011;13406;53.380;7.226;2022-11-15T06:34:47;36.70;;;22.83;;
25497;SDS011;13406;53.380;7.226;2022-11-15T06:37:13;37.03;;;22.20;;
25497;SDS011;13406;53.380;7.226;2022-11-15T06:39:38;32.80;;;22.27;;
25497;SDS011;13406;53.380;7.226;2022-11-15T06:42:03;40.87;;;22.27;;
25497;SDS011;13406;53.380;7.226;2022-11-15T06:44:29;34.13;;;22.80;;
25497;SDS011;13406;53.380;7.226;2022-11-15T06:46:54;35.23;;;21.83;;
25497;SDS011;13406;53.380;7.226;2022-11-15T06:49:20;33.93;;;22.53;;
25497;SDS011;13406;53.380;7.226;2022-11-15T06:51:45;36.07;;;21.70;;
25497;SDS011;13406;53.380;7.226;2022-11-15T06:54:11;33.80;;;21.60;;
25497;SDS011;13406;53.380;7.226;2022-11-15T06:56:36;30.53;;;20.70;;
25497;SDS011;13406;53.380;7.226;2022-11-15T06:59:02;30.03;;;20.03;;
25497;SDS011;13406;53.380;7.226;2022-11-15T07:01:27;37.00;;;21.80;;
25497;SDS011;13406;53.380;7.226;2022-11-15T07:03:52;30.37;;;20.77;;
25497;SDS011;13406;53.380;7.226;2022-11-15T07:06:18;30.70;;;21.03;;
25497;SDS011;13406;53.380;7.226;2022-11-15T07:08:43;35.50;;;21.80;;
25497;SDS011;13406;53.380;7.226;2022-11-15T07:11:09;30.00;;;20.60;;
25497;SDS011;13406;53.380;7.226;2022-11-15T07:13:35;30.30;;;20.23;;
25497;SDS011;13406;53.380;7.226;2022-11-15T07:16:05;34.13;;;19.37;;
25497;SDS011;13406;53.380;7.226;2022-11-15T07:18:36;28.50;;;20.47;;
25497;SDS011;13406;53.380;7.226;2022-11-15T07:21:03;37.53;;;22.27;;
25497;SDS011;13406;53.380;7.226;2022-11-15T07:23:29;31.43;;;20.20;;
25497;SDS011;13406;53.380;7.226;2022-11-15T07:25:58;33.23;;;20.60;;
25497;SDS011;13406;53.380;7.226;2022-11-15T07:28:25;30.97;;;20.30;;
25497;SDS011;13406;53.380;7.226;2022-11-15T07:30:51;37.13;;;20.30;;
25497;SDS011;13406;53.380;7.226;2022-11-15T07:33:16;29.20;;;18.33;;
25497;SDS011;13406;53.380;7.226;2022-11-15T07:35:42;35.07;;;19.57;;
25497;SDS011;13406;53.380;7.226;2022-11-15T07:38:07;34.23;;;21.87;;
25497;SDS011;13406;53.380;7.226;2022-11-15T07:40:33;29.50;;;18.27;;
25497;SDS011;13406;53.380;7.226;2022-11-15T07:43:03;26.23;;;18.77;;
25497;SDS011;13406;53.380;7.226;2022-11-15T07:45:31;29.60;;;18.60;;
25497;SDS011;13406;53.380;7.226;2022-11-15T07:47:58;28.03;;;19.20;;
25497;SDS011;13406;53.380;7.226;2022-11-15T07:50:24;28.27;;;18.47;;
25497;SDS011;13406;53.380;7.226;2022-11-15T07:52:54;32.80;;;20.30;;
25497;SDS011;13406;53.380;7.226;2022-11-15T07:55:21;24.80;;;18.37;;
25497;SDS011;13406;53.380;7.226;2022-11-15T07:57:50;27.97;;;18.73;;
25497;SDS011;13406;53.380;7.226;2022-11-15T08:00:16;31.03;;;20.03;;
25497;SDS011;13406;53.380;7.226;2022-11-15T08:02:42;29.50;;;18.30;;
25497;SDS011;13406;53.380;7.226;2022-11-15T08:05:08;30.60;;;19.03;;
25497;SDS011;13406;53.380;7.226;2022-11-15T08:07:33;25.53;;;18.60;;
25497;SDS011;13406;53.380;7.226;2022-11-15T08:09:59;28.00;;;18.90;;
25497;SDS011;13406;53.380;7.226;2022-11-15T08:12:26;25.37;;;16.90;;
25497;SDS011;13406;53.380;7.226;2022-11-15T08:14:54;28.17;;;18.50;;
25497;SDS011;13406;53.380;7.226;2022-11-15T08:17:20;25.60;;;16.60;;
25497;SDS011;13406;53.380;7.226;2022-11-15T08:19:46;21.60;;;17.47;;
25497;SDS011;13406;53.380;7.226;2022-11-15T08:22:12;21.63;;;16.90;;
25497;SDS011;13406;53.380;7.226;2022-11-15T08:24:37;24.10;;;17.23;;
25497;SDS011;13406;53.380;7.226;2022-11-15T08:27:03;25.93;;;17.80;;
25497;SDS011;13406;53.380;7.226;2022-11-15T08:29:28;23.33;;;16.30;;
25497;SDS011;13406;53.380;7.226;2022-11-15T08:31:54;21.77;;;17.23;;
25497;SDS011;13406;53.380;7.226;2022-11-15T08:34:21;20.50;;;17.37;;
25497;SDS011;13406;53.380;7.226;2022-11-15T08:36:46;24.03;;;17.80;;
25497;SDS011;13406;53.380;7.226;2022-11-15T08:39:12;19.90;;;15.80;;
25497;SDS011;13406;53.380;7.226;2022-11-15T08:41:37;21.40;;;17.73;;
25497;SDS011;13406;53.380;7.226;2022-11-15T08:44:03;21.57;;;16.40;;
25497;SDS011;13406;53.380;7.226;2022-11-15T08:46:29;22.03;;;16.83;;
25497;SDS011;13406;53.380;7.226;2022-11-15T08:48:54;20.57;;;15.90;;
25497;SDS011;13406;53.380;7.226;2022-11-15T08:51:19;22.80;;;17.90;;
25497;SDS011;13406;53.380;7.226;2022-11-15T08:53:45;21.70;;;16.77;;
25497;SDS011;13406;53.380;7.226;2022-11-15T08:56:11;21.20;;;16.33;;
25497;SDS011;13406;53.380;7.226;2022-11-15T08:58:38;20.43;;;17.20;;
25497;SDS011;13406;53.380;7.226;2022-11-15T09:01:04;19.60;;;17.33;;
25497;SDS011;13406;53.380;7.226;2022-11-15T09:03:30;18.97;;;16.50;;
25497;SDS011;13406;53.380;7.226;2022-11-15T09:05:56;23.97;;;18.00;;
25497;SDS011;13406;53.380;7.226;2022-11-15T09:08:23;18.43;;;15.30;;
25497;SDS011;13406;53.380;7.226;2022-11-15T09:10:49;22.43;;;17.30;;
25497;SDS011;13406;53.380;7.226;2022-11-15T09:13:15;19.17;;;15.00;;
25497;SDS011;13406;53.380;7.226;2022-11-15T09:15:41;19.13;;;16.80;;
25497;SDS011;13406;53.380;7.226;2022-11-15T09:18:06;19.17;;;16.07;;
25497;SDS011;13406;53.380;7.226;2022-11-15T09:20:32;19.80;;;16.90;;
25497;SDS011;13406;53.380;7.226;2022-11-15T09:23:01;18.47;;;16.33;;
25497;SDS011;13406;53.380;7.226;2022-11-15T09:25:27;19.40;;;16.40;;
25497;SDS011;13406;53.380;7.226;2022-11-15T09:27:53;20.10;;;15.90;;
25497;SDS011;13406;53.380;7.226;2022-11-15T09:30:19;19.67;;;16.20;;
25497;SDS011;13406;53.380;7.226;2022-11-15T09:32:44;22.63;;;16.23;;
25497;SDS011;13406;53.380;7.226;2022-11-15T09:35:09;19.47;;;15.90;;
25497;SDS011;13406;53.380;7.226;2022-11-15T09:37:35;19.70;;;16.90;;
25497;SDS011;13406;53.380;7.226;2022-11-15T09:40:01;19.93;;;14.80;;
25497;SDS011;13406;53.380;7.226;2022-11-15T09:42:45;22.33;;;18.37;;
25497;SDS011;13406;53.380;7.226;2022-11-15T09:50:32;19.37;;;17.00;;
25497;SDS011;13406;53.380;7.226;2022-11-15T09:53:12;17.47;;;14.57;;
25497;SDS011;13406;53.380;7.226;2022-11-15T09:55:45;18.87;;;16.70;;
25497;SDS011;13406;53.380;7.226;2022-11-15T09:58:21;18.83;;;16.83;;
25497;SDS011;13406;53.380;7.226;2022-11-15T10:01:10;21.47;;;15.13;;
25497;SDS011;13406;53.380;7.226;2022-11-15T10:03:42;16.17;;;14.43;;
25497;SDS011;13406;53.380;7.226;2022-11-15T10:06:21;19.03;;;15.03;;
25497;SDS011;13406;53.380;7.226;2022-11-15T10:11:27;18.80;;;15.57;;
25497;SDS011;13406;53.380;7.226;2022-11-15T10:14:17;19.20;;;15.00;;
25497;SDS011;13406;53.380;7.226;2022-11-15T10:19:52;18.47;;;14.50;;
25497;SDS011;13406;53.380;7.226;2022-11-15T10:22:26;16.10;;;14.30;;
25497;SDS011;13406;53.380;7.226;2022-11-15T10:25:12;18.93;;;13.33;;
25497;SDS011;13406;53.380;7.226;2022-11-15T10:30:37;15.63;;;12.67;;
25497;SDS011;13406;53.380;7.226;2022-11-15T10:33:37;16.80;;;14.00;;
25497;SDS011;13406;53.380;7.226;2022-11-15T10:46:34;13.63;;;12.30;;
25497;SDS011;13406;53.380;7.226;2022-11-15T10:49:13;16.00;;;13.17;;
25497;SDS011;13406;53.380;7.226;2022-11-15T10:51:57;16.17;;;13.40;;
25497;SDS011;13406;53.380;7.226;2022-11-15T10:54:45;15.13;;;13.10;;
25497;SDS011;13406;53.380;7.226;2022-11-15T10:57:15;17.07;;;15.23;;
25497;SDS011;13406;53.380;7.226;2022-11-15T10:59:47;16.43;;;14.27;;
25497;SDS011;13406;53.380;7.226;2022-11-15T11:02:28;14.30;;;12.80;;
25497;SDS011;13406;53.380;7.226;2022-11-15T11:05:29;15.47;;;13.87;;
25497;SDS011;13406;53.380;7.226;2022-11-15T11:08:02;15.70;;;14.17;;
25497;SDS011;13406;53.380;7.226;2022-11-15T11:10:54;13.70;;;12.30;;
25497;SDS011;13406;53.380;7.226;2022-11-15T11:13:25;15.37;;;13.73;;
25497;SDS011;13406;53.380;7.226;2022-11-15T11:21:18;14.57;;;12.60;;
25497;SDS011;13406;53.380;7.226;2022-11-15T11:23:52;13.93;;;12.23;;
25497;SDS011;13406;53.380;7.226;2022-11-15T11:31:43;15.53;;;13.87;;
25497;SDS011;13406;53.380;7.226;2022-11-15T11:38:17;16.57;;;13.43;;
25497;SDS011;13406;53.380;7.226;2022-11-15T11:46:02;15.60;;;14.00;;
25497;SDS011;13406;53.380;7.226;2022-11-15T11:51:48;15.33;;;13.20;;
25497;SDS011;13406;53.380;7.226;2022-11-15T11:54:27;15.87;;;14.17;;
25497;SDS011;13406;53.380;7.226;2022-11-15T11:57:02;16.23;;;14.63;;
25497;SDS011;13406;53.380;7.226;2022-11-15T12:02:15;17.17;;;15.37;;
25497;SDS011;13406;53.380;7.226;2022-11-15T12:04:50;14.87;;;13.37;;
25497;SDS011;13406;53.380;7.226;2022-11-15T12:07:24;14.47;;;13.00;;
25497;SDS011;13406;53.380;7.226;2022-11-15T12:15:49;13.87;;;12.47;;
25497;SDS011;13406;53.380;7.226;2022-11-15T12:18:26;14.40;;;12.90;;
25497;SDS011;13406;53.380;7.226;2022-11-15T12:21:07;15.90;;;12.70;;
25497;SDS011;13406;53.380;7.226;2022-11-15T12:23:45;14.50;;;12.50;;
25497;SDS011;13406;53.380;7.226;2022-11-15T12:26:18;13.73;;;12.17;;
25497;SDS011;13406;53.380;7.226;2022-11-15T12:28:55;13.23;;;11.80;;
25497;SDS011;13406;53.380;7.226;2022-11-15T12:34:00;13.70;;;12.40;;
25497;SDS011;13406;53.380;7.226;2022-11-15T12:36:35;12.93;;;11.67;;
25497;SDS011;13406;53.380;7.226;2022-11-15T12:39:04;13.80;;;11.97;;
25497;SDS011;13406;53.380;7.226;2022-11-15T12:41:33;15.00;;;13.57;;
25497;SDS011;13406;53.380;7.226;2022-11-15T12:44:01;13.90;;;12.60;;
25497;SDS011;13406;53.380;7.226;2022-11-15T12:49:00;13.57;;;11.17;;
25497;SDS011;13406;53.380;7.226;2022-11-15T13:02:32;13.33;;;11.93;;
25497;SDS011;13406;53.380;7.226;2022-11-15T13:30:39;9.80;;;8.40;;
25497;SDS011;13406;53.380;7.226;2022-11-15T13:33:23;7.47;;;6.83;;
25497;SDS011;13406;53.380;7.226;2022-11-15T13:35:59;7.40;;;5.80;;
25497;SDS011;13406;53.380;7.226;2022-11-15T13:38:35;5.95;;;4.50;;
25497;SDS011;13406;53.380;7.226;2022-11-15T13:43:45;5.20;;;3.60;;
25497;SDS011;13406;53.380;7.226;2022-11-15T13:48:50;3.93;;;3.27;;
25497;SDS011;13406;53.380;7.226;2022-11-15T13:51:24;3.57;;;2.97;;
25497;SDS011;13406;53.380;7.226;2022-11-15T13:56:37;3.17;;;2.80;;
25497;SDS011;13406;53.380;7.226;2022-11-15T13:59:25;3.17;;;2.87;;
25497;SDS011;13406;53.380;7.226;2022-11-15T14:01:53;5.57;;;3.13;;
25497;SDS011;13406;53.380;7.226;2022-11-15T14:04:21;8.83;;;3.10;;
25497;SDS011;13406;53.380;7.226;2022-11-15T14:06:49;3.90;;;3.00;;
25497;SDS011;13406;53.380;7.226;2022-11-15T14:09:30;4.67;;;2.83;;
25497;SDS011;13406;53.380;7.226;2022-11-15T14:12:26;6.83;;;3.10;;
25497;SDS011;13406;53.380;7.226;2022-11-15T14:14:55;4.30;;;2.77;;
25497;SDS011;13406;53.380;7.226;2022-11-15T14:19:53;2.47;;;2.07;;
25497;SDS011;13406;53.380;7.226;2022-11-15T14:22:20;4.67;;;2.50;;
25497;SDS011;13406;53.380;7.226;2022-11-15T14:27:44;8.13;;;2.87;;
25497;SDS011;13406;53.380;7.226;2022-11-15T14:30:55;3.90;;;2.87;;
25497;SDS011;13406;53.380;7.226;2022-11-15T14:35:54;4.57;;;2.50;;
25497;SDS011;13406;53.380;7.226;2022-11-15T14:38:22;3.87;;;2.90;;
25497;SDS011;13406;53.380;7.226;2022-11-15T14:40:48;3.50;;;2.57;;
25497;SDS011;13406;53.380;7.226;2022-11-15T14:43:14;3.13;;;2.73;;
25497;SDS011;13406;53.380;7.226;2022-11-15T14:45:40;3.30;;;3.00;;
25497;SDS011;13406;53.380;7.226;2022-11-15T14:48:06;4.37;;;3.57;;
25497;SDS011;13406;53.380;7.226;2022-11-15T14:50:32;5.60;;;3.20;;
25497;SDS011;13406;53.380;7.226;2022-11-15T14:52:58;4.40;;;2.67;;
25497;SDS011;13406;53.380;7.226;2022-11-15T14:55:25;3.40;;;2.60;;
25497;SDS011;13406;53.380;7.226;2022-11-15T14:58:00;3.80;;;2.57;;
25497;SDS011;13406;53.380;7.226;2022-11-15T15:00:28;3.43;;;2.50;;
25497;SDS011;13406;53.380;7.226;2022-11-15T15:02:54;3.57;;;2.53;;
25497;SDS011;13406;53.380;7.226;2022-11-15T15:07:47;3.17;;;2.50;;
25497;SDS011;13406;53.380;7.226;2022-11-15T15:10:13;2.23;;;2.03;;
25497;SDS011;13406;53.380;7.226;2022-11-15T15:12:42;5.27;;;2.67;;
25497;SDS011;13406;53.380;7.226;2022-11-15T15:15:41;2.60;;;2.13;;
25497;SDS011;13406;53.380;7.226;2022-11-15T15:18:01;3.13;;;2.47;;
25497;SDS011;13406;53.380;7.226;2022-11-15T15:20:28;2.67;;;2.00;;
25497;SDS011;13406;53.380;7.226;2022-11-15T15:22:54;3.77;;;2.47;;
25497;SDS011;13406;53.380;7.226;2022-11-15T15:27:47;4.83;;;2.20;;
25497;SDS011;13406;53.380;7.226;2022-11-15T15:30:13;4.37;;;2.53;;
25497;SDS011;13406;53.380;7.226;2022-11-15T15:32:38;2.67;;;1.90;;
25497;SDS011;13406;53.380;7.226;2022-11-15T15:35:04;2.97;;;2.17;;
25497;SDS011;13406;53.380;7.226;2022-11-15T15:37:30;3.40;;;2.20;;
25497;SDS011;13406;53.380;7.226;2022-11-15T15:39:58;3.43;;;2.60;;
25497;SDS011;13406;53.380;7.226;2022-11-15T15:42:24;2.97;;;2.10;;
25497;SDS011;13406;53.380;7.226;2022-11-15T15:44:50;2.73;;;2.20;;
25497;SDS011;13406;53.380;7.226;2022-11-15T15:47:20;3.30;;;2.50;;
25497;SDS011;13406;53.380;7.226;2022-11-15T15:49:47;3.30;;;2.30;;
25497;SDS011;13406;53.380;7.226;2022-11-15T15:52:13;7.93;;;3.50;;
25497;SDS011;13406;53.380;7.226;2022-11-15T15:54:39;3.30;;;2.90;;
25497;SDS011;13406;53.380;7.226;2022-11-15T15:57:05;4.00;;;2.53;;
25497;SDS011;13406;53.380;7.226;2022-11-15T15:59:31;4.13;;;2.60;;
25497;SDS011;13406;53.380;7.226;2022-11-15T16:01:57;3.00;;;2.60;;
25497;SDS011;13406;53.380;7.226;2022-11-15T16:04:22;3.87;;;2.73;;
25497;SDS011;13406;53.380;7.226;2022-11-15T16:06:48;3.40;;;3.03;;
25497;SDS011;13406;53.380;7.226;2022-11-15T16:09:16;3.93;;;3.03;;
25497;SDS011;13406;53.380;7.226;2022-11-15T16:12:04;3.80;;;3.40;;
25497;SDS011;13406;53.380;7.226;2022-11-15T16:14:29;3.57;;;3.27;;
25497;SDS011;13406;53.380;7.226;2022-11-15T16:16:54;5.20;;;3.27;;
25497;SDS011;13406;53.380;7.226;2022-11-15T16:19:20;4.60;;;3.50;;
25497;SDS011;13406;53.380;7.226;2022-11-15T16:21:45;5.30;;;4.37;;
25497;SDS011;13406;53.380;7.226;2022-11-15T16:24:11;4.10;;;3.70;;
25497;SDS011;13406;53.380;7.226;2022-11-15T16:26:36;3.47;;;2.87;;
25497;SDS011;13406;53.380;7.226;2022-11-15T16:29:02;4.67;;;3.53;;
25497;SDS011;13406;53.380;7.226;2022-11-15T16:31:27;4.40;;;2.80;;
25497;SDS011;13406;53.380;7.226;2022-11-15T16:33:53;3.80;;;3.00;;
25497;SDS011;13406;53.380;7.226;2022-11-15T16:36:20;4.20;;;2.87;;
25497;SDS011;13406;53.380;7.226;2022-11-15T16:38:46;2.90;;;2.70;;
25497;SDS011;13406;53.380;7.226;2022-11-15T16:41:12;4.00;;;3.20;;
25497;SDS011;13406;53.380;7.226;2022-11-15T16:43:37;3.73;;;3.30;;
25497;SDS011;13406;53.380;7.226;2022-11-15T16:46:06;4.27;;;2.60;;
25497;SDS011;13406;53.380;7.226;2022-11-15T16:48:34;3.20;;;2.87;;
25497;SDS011;13406;53.380;7.226;2022-11-15T16:50:59;4.97;;;3.37;;
25497;SDS011;13406;53.380;7.226;2022-11-15T16:53:25;4.50;;;3.23;;
25497;SDS011;13406;53.380;7.226;2022-11-15T16:55:52;3.90;;;3.03;;
25497;SDS011;13406;53.380;7.226;2022-11-15T16:58:18;3.70;;;3.30;;
25497;SDS011;13406;53.380;7.226;2022-11-15T17:00:48;6.33;;;3.60;;
25497;SDS011;13406;53.380;7.226;2022-11-15T17:03:18;4.50;;;3.13;;
25497;SDS011;13406;53.380;7.226;2022-11-15T17:05:44;3.70;;;3.30;;
25497;SDS011;13406;53.380;7.226;2022-11-15T17:08:09;3.43;;;3.13;;
25497;SDS011;13406;53.380;7.226;2022-11-15T17:10:37;3.93;;;2.87;;
25497;SDS011;13406;53.380;7.226;2022-11-15T17:13:04;4.80;;;3.70;;